sensor_id;sensor_type;location;lat;lon;timestamp;temperature;humidity
11848;DHT22;5983;49.966;8.052;2023-06-24T00:01:37;17.50;99.90
11848;DHT22;5983;49.966;8.052;2023-06-24T00:04:06;17.50;99.90
11848;DHT22;5983;49.966;8.052;2023-06-24T00:06:32;17.50;99.90
11848;DHT22;5983;49.966;8.052;2023-06-24T00:08:59;17.50;99.90
11848;DHT22;5983;49.966;8.052;2023-06-24T00:11:28;17.50;99.90
11848;DHT22;5983;49.966;8.052;2023-06-24T00:13:55;17.50;99.90
11848;DHT22;5983;49.966;8.052;2023-06-24T00:16:23;17.50;99.90
11848;DHT22;5983;49.966;8.052;2023-06-24T00:18:54;17.50;99.90
11848;DHT22;5983;49.966;8.052;2023-06-24T00:21:27;17.40;99.90
11848;DHT22;5983;49.966;8.052;2023-06-24T00:23:56;17.40;99.90
11848;DHT22;5983;49.966;8.052;2023-06-24T00:26:24;17.30;99.90
11848;DHT22;5983;49.966;8.052;2023-06-24T00:28:51;17.30;99.90
11848;DHT22;5983;49.966;8.052;2023-06-24T00:31:18;17.20;99.90
11848;DHT22;5983;49.966;8.052;2023-06-24T00:33:45;17.20;99.90
11848;DHT22;5983;49.966;8.052;2023-06-24T00:36:12;17.10;99.90
11848;DHT22;5983;49.966;8.052;2023-06-24T00:38:41;17.00;99.90
11848;DHT22;5983;49.966;8.052;2023-06-24T00:41:08;16.90;99.90
11848;DHT22;5983;49.966;8.052;2023-06-24T00:43:35;16.90;99.90
11848;DHT22;5983;49.966;8.052;2023-06-24T00:46:03;16.90;99.90
11848;DHT22;5983;49.966;8.052;2023-06-24T00:48:32;16.90;99.90
11848;DHT22;5983;49.966;8.052;2023-06-24T00:50:59;16.90;99.90
11848;DHT22;5983;49.966;8.052;2023-06-24T00:53:26;16.80;99.90
11848;DHT22;5983;49.966;8.052;2023-06-24T00:55:57;16.80;99.90
11848;DHT22;5983;49.966;8.052;2023-06-24T00:58:28;16.80;99.90
11848;DHT22;5983;49.966;8.052;2023-06-24T01:00:57;16.80;99.90
11848;DHT22;5983;49.966;8.052;2023-06-24T01:03:25;16.70;99.90
11848;DHT22;5983;49.966;8.052;2023-06-24T01:05:52;16.70;99.90
11848;DHT22;5983;49.966;8.052;2023-06-24T01:08:20;16.70;99.90
11848;DHT22;5983;49.966;8.052;2023-06-24T01:10:48;16.60;99.90
11848;DHT22;5983;49.966;8.052;2023-06-24T01:13:17;16.70;99.90
11848;DHT22;5983;49.966;8.052;2023-06-24T01:15:45;16.60;99.90
11848;DHT22;5983;49.966;8.052;2023-06-24T01:18:21;16.60;99.90
11848;DHT22;5983;49.966;8.052;2023-06-24T01:20:55;16.60;99.90
11848;DHT22;5983;49.966;8.052;2023-06-24T01:30:21;16.60;99.90
11848;DHT22;5983;49.966;8.052;2023-06-24T01:33:11;16.60;99.90
11848;DHT22;5983;49.966;8.052;2023-06-24T01:35:42;16.60;99.90
11848;DHT22;5983;49.966;8.052;2023-06-24T01:38:12;16.70;99.90
11848;DHT22;5983;49.966;8.052;2023-06-24T01:40:48;16.60;99.90
11848;DHT22;5983;49.966;8.052;2023-06-24T01:43:17;16.60;99.90
11848;DHT22;5983;49.966;8.052;2023-06-24T01:45:51;16.60;99.90
11848;DHT22;5983;49.966;8.052;2023-06-24T01:48:24;16.60;99.90
11848;DHT22;5983;49.966;8.052;2023-06-24T01:50:58;16.60;99.90
11848;DHT22;5983;49.966;8.052;2023-06-24T01:53:27;16.60;99.90
11848;DHT22;5983;49.966;8.052;2023-06-24T01:55:57;16.50;99.90
11848;DHT22;5983;49.966;8.052;2023-06-24T01:58:26;16.50;99.90
11848;DHT22;5983;49.966;8.052;2023-06-24T02:00:55;16.40;99.90
11848;DHT22;5983;49.966;8.052;2023-06-24T02:03:25;16.30;99.90
11848;DHT22;5983;49.966;8.052;2023-06-24T02:05:54;16.20;99.90
11848;DHT22;5983;49.966;8.052;2023-06-24T02:08:23;16.10;99.90
11848;DHT22;5983;49.966;8.052;2023-06-24T02:10:52;16.10;99.90
11848;DHT22;5983;49.966;8.052;2023-06-24T02:13:22;16.10;99.90
11848;DHT22;5983;49.966;8.052;2023-06-24T02:15:51;16.00;99.90
11848;DHT22;5983;49.966;8.052;2023-06-24T02:18:20;15.90;99.90
11848;DHT22;5983;49.966;8.052;2023-06-24T02:20:50;15.90;99.90
11848;DHT22;5983;49.966;8.052;2023-06-24T02:23:19;15.90;99.90
11848;DHT22;5983;49.966;8.052;2023-06-24T02:25:48;15.80;99.90
11848;DHT22;5983;49.966;8.052;2023-06-24T02:28:16;15.80;99.90
11848;DHT22;5983;49.966;8.052;2023-06-24T02:30:45;15.80;99.90
11848;DHT22;5983;49.966;8.052;2023-06-24T02:33:14;15.90;99.90
11848;DHT22;5983;49.966;8.052;2023-06-24T02:35:41;15.80;99.90
11848;DHT22;5983;49.966;8.052;2023-06-24T02:38:09;15.70;99.90
11848;DHT22;5983;49.966;8.052;2023-06-24T02:40:36;15.70;99.90
11848;DHT22;5983;49.966;8.052;2023-06-24T02:43:04;15.60;99.90
11848;DHT22;5983;49.966;8.052;2023-06-24T02:45:31;15.50;99.90
11848;DHT22;5983;49.966;8.052;2023-06-24T02:47:58;15.50;99.90
11848;DHT22;5983;49.966;8.052;2023-06-24T02:50:27;15.60;99.90
11848;DHT22;5983;49.966;8.052;2023-06-24T02:52:55;15.60;99.90
11848;DHT22;5983;49.966;8.052;2023-06-24T02:55:25;15.60;99.90
11848;DHT22;5983;49.966;8.052;2023-06-24T02:57:53;15.60;99.90
11848;DHT22;5983;49.966;8.052;2023-06-24T03:00:23;15.60;99.90
11848;DHT22;5983;49.966;8.052;2023-06-24T03:02:51;15.60;99.90
11848;DHT22;5983;49.966;8.052;2023-06-24T03:05:18;15.60;99.90
11848;DHT22;5983;49.966;8.052;2023-06-24T03:07:45;15.50;99.90
11848;DHT22;5983;49.966;8.052;2023-06-24T03:10:13;15.40;99.90
11848;DHT22;5983;49.966;8.052;2023-06-24T03:12:42;15.30;99.90
11848;DHT22;5983;49.966;8.052;2023-06-24T03:15:09;15.30;99.90
11848;DHT22;5983;49.966;8.052;2023-06-24T03:17:37;15.30;99.90
11848;DHT22;5983;49.966;8.052;2023-06-24T03:20:05;15.20;99.90
11848;DHT22;5983;49.966;8.052;2023-06-24T03:22:33;15.20;99.90
11848;DHT22;5983;49.966;8.052;2023-06-24T03:25:00;15.30;99.90
11848;DHT22;5983;49.966;8.052;2023-06-24T03:27:27;15.30;99.90
11848;DHT22;5983;49.966;8.052;2023-06-24T03:29:55;15.20;99.90
11848;DHT22;5983;49.966;8.052;2023-06-24T03:32:22;15.20;99.90
11848;DHT22;5983;49.966;8.052;2023-06-24T03:34:49;15.10;99.90
11848;DHT22;5983;49.966;8.052;2023-06-24T03:37:16;15.10;99.90
11848;DHT22;5983;49.966;8.052;2023-06-24T03:39:43;15.10;99.90
11848;DHT22;5983;49.966;8.052;2023-06-24T03:42:10;15.20;99.90
11848;DHT22;5983;49.966;8.052;2023-06-24T03:44:36;15.30;99.90
11848;DHT22;5983;49.966;8.052;2023-06-24T03:47:05;15.30;99.90
11848;DHT22;5983;49.966;8.052;2023-06-24T03:49:32;15.30;99.90
11848;DHT22;5983;49.966;8.052;2023-06-24T03:51:59;15.20;99.90
11848;DHT22;5983;49.966;8.052;2023-06-24T03:54:26;15.30;99.90
11848;DHT22;5983;49.966;8.052;2023-06-24T03:56:52;15.20;99.90
11848;DHT22;5983;49.966;8.052;2023-06-24T03:59:19;15.20;99.90
11848;DHT22;5983;49.966;8.052;2023-06-24T04:01:46;15.10;99.90
11848;DHT22;5983;49.966;8.052;2023-06-24T04:04:17;15.10;99.90
11848;DHT22;5983;49.966;8.052;2023-06-24T04:06:44;15.10;99.90
11848;DHT22;5983;49.966;8.052;2023-06-24T04:09:10;15.20;99.90
11848;DHT22;5983;49.966;8.052;2023-06-24T04:11:37;15.20;99.90
11848;DHT22;5983;49.966;8.052;2023-06-24T04:14:04;15.20;99.90
11848;DHT22;5983;49.966;8.052;2023-06-24T04:16:32;15.30;99.90
11848;DHT22;5983;49.966;8.052;2023-06-24T04:18:59;15.30;99.90
11848;DHT22;5983;49.966;8.052;2023-06-24T04:21:27;15.40;99.90
11848;DHT22;5983;49.966;8.052;2023-06-24T04:23:54;15.40;99.90
11848;DHT22;5983;49.966;8.052;2023-06-24T04:26:21;15.50;99.90
11848;DHT22;5983;49.966;8.052;2023-06-24T04:28:48;15.50;99.90
11848;DHT22;5983;49.966;8.052;2023-06-24T04:31:15;15.60;99.90
11848;DHT22;5983;49.966;8.052;2023-06-24T04:33:42;15.70;99.90
11848;DHT22;5983;49.966;8.052;2023-06-24T04:36:09;15.70;99.90
11848;DHT22;5983;49.966;8.052;2023-06-24T04:38:37;15.80;99.90
11848;DHT22;5983;49.966;8.052;2023-06-24T04:41:04;15.80;99.90
11848;DHT22;5983;49.966;8.052;2023-06-24T04:43:31;15.90;99.90
11848;DHT22;5983;49.966;8.052;2023-06-24T04:45:58;16.10;99.90
11848;DHT22;5983;49.966;8.052;2023-06-24T04:48:25;16.20;99.90
11848;DHT22;5983;49.966;8.052;2023-06-24T04:50:53;16.40;99.90
11848;DHT22;5983;49.966;8.052;2023-06-24T04:53:20;16.50;99.90
11848;DHT22;5983;49.966;8.052;2023-06-24T04:55:48;16.60;99.90
11848;DHT22;5983;49.966;8.052;2023-06-24T04:58:15;16.70;99.90
11848;DHT22;5983;49.966;8.052;2023-06-24T05:00:43;16.80;99.90
11848;DHT22;5983;49.966;8.052;2023-06-24T05:03:10;16.90;99.90
11848;DHT22;5983;49.966;8.052;2023-06-24T05:05:36;17.00;99.90
11848;DHT22;5983;49.966;8.052;2023-06-24T05:08:04;17.10;99.90
11848;DHT22;5983;49.966;8.052;2023-06-24T05:10:30;17.20;99.90
11848;DHT22;5983;49.966;8.052;2023-06-24T05:12:59;17.30;99.90
11848;DHT22;5983;49.966;8.052;2023-06-24T05:15:26;17.40;99.90
11848;DHT22;5983;49.966;8.052;2023-06-24T05:17:53;17.50;99.90
11848;DHT22;5983;49.966;8.052;2023-06-24T05:20:20;17.60;99.90
11848;DHT22;5983;49.966;8.052;2023-06-24T05:22:46;17.70;99.90
11848;DHT22;5983;49.966;8.052;2023-06-24T05:25:13;17.80;99.90
11848;DHT22;5983;49.966;8.052;2023-06-24T05:27:40;17.90;99.90
11848;DHT22;5983;49.966;8.052;2023-06-24T05:30:11;17.90;99.90
11848;DHT22;5983;49.966;8.052;2023-06-24T05:32:39;18.00;99.90
11848;DHT22;5983;49.966;8.052;2023-06-24T05:35:08;18.10;99.90
11848;DHT22;5983;49.966;8.052;2023-06-24T05:37:35;18.20;99.90
11848;DHT22;5983;49.966;8.052;2023-06-24T05:40:02;18.30;99.90
11848;DHT22;5983;49.966;8.052;2023-06-24T05:42:30;18.30;99.90
11848;DHT22;5983;49.966;8.052;2023-06-24T05:44:57;18.40;99.90
11848;DHT22;5983;49.966;8.052;2023-06-24T05:47:26;18.50;99.90
11848;DHT22;5983;49.966;8.052;2023-06-24T05:49:52;18.60;99.90
11848;DHT22;5983;49.966;8.052;2023-06-24T05:52:19;18.70;99.90
11848;DHT22;5983;49.966;8.052;2023-06-24T05:54:46;18.70;99.90
11848;DHT22;5983;49.966;8.052;2023-06-24T05:57:13;18.80;99.90
11848;DHT22;5983;49.966;8.052;2023-06-24T05:59:40;18.90;99.90
11848;DHT22;5983;49.966;8.052;2023-06-24T06:02:07;19.00;99.90
11848;DHT22;5983;49.966;8.052;2023-06-24T06:04:36;19.20;99.90
11848;DHT22;5983;49.966;8.052;2023-06-24T06:07:05;19.30;99.90
11848;DHT22;5983;49.966;8.052;2023-06-24T06:09:32;19.40;99.90
11848;DHT22;5983;49.966;8.052;2023-06-24T06:11:59;19.50;99.90
11848;DHT22;5983;49.966;8.052;2023-06-24T06:14:25;19.60;99.90
11848;DHT22;5983;49.966;8.052;2023-06-24T06:16:52;19.80;99.90
11848;DHT22;5983;49.966;8.052;2023-06-24T06:19:19;20.00;99.90
11848;DHT22;5983;49.966;8.052;2023-06-24T06:21:49;20.00;99.90
11848;DHT22;5983;49.966;8.052;2023-06-24T06:24:16;20.20;99.90
11848;DHT22;5983;49.966;8.052;2023-06-24T06:26:43;20.30;99.90
11848;DHT22;5983;49.966;8.052;2023-06-24T06:29:10;20.30;99.90
11848;DHT22;5983;49.966;8.052;2023-06-24T06:31:37;20.50;99.90
11848;DHT22;5983;49.966;8.052;2023-06-24T06:34:05;20.50;99.90
11848;DHT22;5983;49.966;8.052;2023-06-24T06:36:32;20.60;99.90
11848;DHT22;5983;49.966;8.052;2023-06-24T06:39:00;20.70;99.90
11848;DHT22;5983;49.966;8.052;2023-06-24T06:41:27;20.80;99.90
11848;DHT22;5983;49.966;8.052;2023-06-24T06:43:54;20.90;99.90
11848;DHT22;5983;49.966;8.052;2023-06-24T06:46:21;21.00;99.90
11848;DHT22;5983;49.966;8.052;2023-06-24T06:48:48;21.10;99.90
11848;DHT22;5983;49.966;8.052;2023-06-24T06:51:16;21.30;99.90
11848;DHT22;5983;49.966;8.052;2023-06-24T06:53:44;21.30;99.90
11848;DHT22;5983;49.966;8.052;2023-06-24T06:56:18;21.40;99.90
11848;DHT22;5983;49.966;8.052;2023-06-24T06:58:45;21.50;99.90
11848;DHT22;5983;49.966;8.052;2023-06-24T07:01:11;21.60;99.90
11848;DHT22;5983;49.966;8.052;2023-06-24T07:03:39;21.70;99.90
11848;DHT22;5983;49.966;8.052;2023-06-24T07:06:06;21.80;99.90
11848;DHT22;5983;49.966;8.052;2023-06-24T07:08:34;21.90;99.90
11848;DHT22;5983;49.966;8.052;2023-06-24T07:11:01;22.00;99.90
11848;DHT22;5983;49.966;8.052;2023-06-24T07:13:29;22.10;99.90
11848;DHT22;5983;49.966;8.052;2023-06-24T07:15:56;22.20;99.90
11848;DHT22;5983;49.966;8.052;2023-06-24T07:18:23;22.40;99.90
11848;DHT22;5983;49.966;8.052;2023-06-24T07:20:53;22.50;99.90
11848;DHT22;5983;49.966;8.052;2023-06-24T07:23:20;22.70;99.90
11848;DHT22;5983;49.966;8.052;2023-06-24T07:25:47;22.80;99.90
11848;DHT22;5983;49.966;8.052;2023-06-24T07:28:14;22.90;99.90
11848;DHT22;5983;49.966;8.052;2023-06-24T07:30:42;23.00;99.90
11848;DHT22;5983;49.966;8.052;2023-06-24T07:33:10;23.20;99.90
11848;DHT22;5983;49.966;8.052;2023-06-24T07:35:37;23.30;99.90
11848;DHT22;5983;49.966;8.052;2023-06-24T07:38:06;23.40;99.90
11848;DHT22;5983;49.966;8.052;2023-06-24T07:40:33;23.60;99.90
11848;DHT22;5983;49.966;8.052;2023-06-24T07:43:00;23.70;99.90
11848;DHT22;5983;49.966;8.052;2023-06-24T07:45:27;23.80;99.90
11848;DHT22;5983;49.966;8.052;2023-06-24T07:47:55;23.90;99.90
11848;DHT22;5983;49.966;8.052;2023-06-24T07:50:22;23.80;99.90
11848;DHT22;5983;49.966;8.052;2023-06-24T07:52:49;23.90;99.90
11848;DHT22;5983;49.966;8.052;2023-06-24T07:55:16;23.90;99.90
11848;DHT22;5983;49.966;8.052;2023-06-24T07:57:45;24.10;99.90
11848;DHT22;5983;49.966;8.052;2023-06-24T08:00:13;24.20;99.90
11848;DHT22;5983;49.966;8.052;2023-06-24T08:02:41;24.30;99.90
11848;DHT22;5983;49.966;8.052;2023-06-24T08:05:09;24.50;99.90
11848;DHT22;5983;49.966;8.052;2023-06-24T08:07:37;24.70;99.90
11848;DHT22;5983;49.966;8.052;2023-06-24T08:10:05;24.90;99.90
11848;DHT22;5983;49.966;8.052;2023-06-24T08:12:33;25.10;99.90
11848;DHT22;5983;49.966;8.052;2023-06-24T08:14:59;25.20;99.90
11848;DHT22;5983;49.966;8.052;2023-06-24T08:17:26;25.10;99.90
11848;DHT22;5983;49.966;8.052;2023-06-24T08:19:53;25.10;99.90
11848;DHT22;5983;49.966;8.052;2023-06-24T08:22:21;25.20;99.90
11848;DHT22;5983;49.966;8.052;2023-06-24T08:24:48;25.20;99.90
11848;DHT22;5983;49.966;8.052;2023-06-24T08:27:15;25.30;99.90
11848;DHT22;5983;49.966;8.052;2023-06-24T08:29:42;25.40;99.90
11848;DHT22;5983;49.966;8.052;2023-06-24T08:32:09;25.50;99.90
11848;DHT22;5983;49.966;8.052;2023-06-24T08:34:36;25.50;99.90
11848;DHT22;5983;49.966;8.052;2023-06-24T08:37:03;25.70;99.90
11848;DHT22;5983;49.966;8.052;2023-06-24T08:39:32;25.80;99.90
11848;DHT22;5983;49.966;8.052;2023-06-24T08:41:59;26.00;99.90
11848;DHT22;5983;49.966;8.052;2023-06-24T08:44:26;26.10;99.90
11848;DHT22;5983;49.966;8.052;2023-06-24T08:46:53;26.20;99.90
11848;DHT22;5983;49.966;8.052;2023-06-24T08:49:27;26.30;99.90
11848;DHT22;5983;49.966;8.052;2023-06-24T08:52:00;26.40;99.90
11848;DHT22;5983;49.966;8.052;2023-06-24T08:54:33;26.50;99.90
11848;DHT22;5983;49.966;8.052;2023-06-24T08:57:02;26.70;99.90
11848;DHT22;5983;49.966;8.052;2023-06-24T08:59:30;26.70;99.90
11848;DHT22;5983;49.966;8.052;2023-06-24T09:01:57;26.70;99.90
11848;DHT22;5983;49.966;8.052;2023-06-24T09:04:24;26.80;99.90
11848;DHT22;5983;49.966;8.052;2023-06-24T09:06:51;26.90;99.90
11848;DHT22;5983;49.966;8.052;2023-06-24T09:09:19;27.00;99.90
11848;DHT22;5983;49.966;8.052;2023-06-24T09:11:56;27.20;99.90
11848;DHT22;5983;49.966;8.052;2023-06-24T09:14:24;27.30;99.90
11848;DHT22;5983;49.966;8.052;2023-06-24T09:16:53;27.30;99.90
11848;DHT22;5983;49.966;8.052;2023-06-24T09:19:21;27.30;99.90
11848;DHT22;5983;49.966;8.052;2023-06-24T09:21:48;27.50;99.90
11848;DHT22;5983;49.966;8.052;2023-06-24T09:24:17;27.60;99.90
11848;DHT22;5983;49.966;8.052;2023-06-24T09:26:44;27.80;99.90
11848;DHT22;5983;49.966;8.052;2023-06-24T09:29:13;28.00;99.90
11848;DHT22;5983;49.966;8.052;2023-06-24T09:31:48;28.10;99.90
11848;DHT22;5983;49.966;8.052;2023-06-24T09:34:15;28.10;99.90
11848;DHT22;5983;49.966;8.052;2023-06-24T09:36:43;28.20;99.90
11848;DHT22;5983;49.966;8.052;2023-06-24T09:39:11;28.20;99.90
11848;DHT22;5983;49.966;8.052;2023-06-24T09:41:40;28.20;99.90
11848;DHT22;5983;49.966;8.052;2023-06-24T09:44:08;28.40;99.90
11848;DHT22;5983;49.966;8.052;2023-06-24T09:46:39;28.50;99.90
11848;DHT22;5983;49.966;8.052;2023-06-24T09:49:08;28.60;99.80
11848;DHT22;5983;49.966;8.052;2023-06-24T09:51:37;28.70;98.30
11848;DHT22;5983;49.966;8.052;2023-06-24T09:54:06;28.80;97.60
11848;DHT22;5983;49.966;8.052;2023-06-24T09:56:35;28.90;96.20
11848;DHT22;5983;49.966;8.052;2023-06-24T09:59:04;28.90;95.60
11848;DHT22;5983;49.966;8.052;2023-06-24T10:01:32;28.90;93.40
11848;DHT22;5983;49.966;8.052;2023-06-24T10:04:03;29.00;92.80
11848;DHT22;5983;49.966;8.052;2023-06-24T10:06:32;29.00;92.20
11848;DHT22;5983;49.966;8.052;2023-06-24T10:09:00;29.00;93.00
11848;DHT22;5983;49.966;8.052;2023-06-24T10:11:27;29.00;93.50
11848;DHT22;5983;49.966;8.052;2023-06-24T10:13:54;29.10;93.10
11848;DHT22;5983;49.966;8.052;2023-06-24T10:16:22;29.00;92.70
11848;DHT22;5983;49.966;8.052;2023-06-24T10:18:49;29.10;92.90
11848;DHT22;5983;49.966;8.052;2023-06-24T10:21:17;29.20;91.60
11848;DHT22;5983;49.966;8.052;2023-06-24T10:23:52;29.30;91.60
11848;DHT22;5983;49.966;8.052;2023-06-24T10:26:24;29.30;91.40
11848;DHT22;5983;49.966;8.052;2023-06-24T10:29:09;29.40;90.60
11848;DHT22;5983;49.966;8.052;2023-06-24T10:31:52;29.50;90.70
11848;DHT22;5983;49.966;8.052;2023-06-24T10:34:24;29.60;91.10
11848;DHT22;5983;49.966;8.052;2023-06-24T10:36:56;29.80;91.90
11848;DHT22;5983;49.966;8.052;2023-06-24T10:39:35;29.80;91.20
11848;DHT22;5983;49.966;8.052;2023-06-24T10:42:38;30.00;90.50
11848;DHT22;5983;49.966;8.052;2023-06-24T10:45:18;30.10;87.80
11848;DHT22;5983;49.966;8.052;2023-06-24T10:47:47;30.20;86.30
11848;DHT22;5983;49.966;8.052;2023-06-24T10:50:20;30.20;84.30
11848;DHT22;5983;49.966;8.052;2023-06-24T10:52:52;30.10;82.70
11848;DHT22;5983;49.966;8.052;2023-06-24T10:55:22;30.00;84.60
11848;DHT22;5983;49.966;8.052;2023-06-24T10:57:50;30.00;84.70
11848;DHT22;5983;49.966;8.052;2023-06-24T11:00:18;30.20;84.30
11848;DHT22;5983;49.966;8.052;2023-06-24T11:02:47;30.30;83.00
11848;DHT22;5983;49.966;8.052;2023-06-24T11:05:14;30.40;82.70
11848;DHT22;5983;49.966;8.052;2023-06-24T11:07:41;30.30;80.30
11848;DHT22;5983;49.966;8.052;2023-06-24T11:10:11;30.10;81.10
11848;DHT22;5983;49.966;8.052;2023-06-24T11:12:40;30.10;80.60
11848;DHT22;5983;49.966;8.052;2023-06-24T11:15:09;29.80;79.30
11848;DHT22;5983;49.966;8.052;2023-06-24T11:17:38;29.70;78.30
11848;DHT22;5983;49.966;8.052;2023-06-24T11:20:07;29.70;78.30
11848;DHT22;5983;49.966;8.052;2023-06-24T11:22:36;29.80;79.60
11848;DHT22;5983;49.966;8.052;2023-06-24T11:25:03;30.10;79.70
11848;DHT22;5983;49.966;8.052;2023-06-24T11:27:32;30.20;76.40
11848;DHT22;5983;49.966;8.052;2023-06-24T11:30:00;30.10;75.80
11848;DHT22;5983;49.966;8.052;2023-06-24T11:32:35;30.00;76.50
11848;DHT22;5983;49.966;8.052;2023-06-24T11:35:04;30.10;75.80
11848;DHT22;5983;49.966;8.052;2023-06-24T11:37:32;30.20;75.00
11848;DHT22;5983;49.966;8.052;2023-06-24T11:40:04;30.30;76.20
11848;DHT22;5983;49.966;8.052;2023-06-24T11:42:36;30.50;76.90
11848;DHT22;5983;49.966;8.052;2023-06-24T11:45:05;30.60;76.70
11848;DHT22;5983;49.966;8.052;2023-06-24T11:47:35;30.60;74.30
11848;DHT22;5983;49.966;8.052;2023-06-24T11:50:05;30.40;72.70
11848;DHT22;5983;49.966;8.052;2023-06-24T11:52:38;30.20;71.30
11848;DHT22;5983;49.966;8.052;2023-06-24T11:55:20;30.10;71.70
11848;DHT22;5983;49.966;8.052;2023-06-24T11:57:55;30.20;72.30
11848;DHT22;5983;49.966;8.052;2023-06-24T12:00:26;30.10;71.80
11848;DHT22;5983;49.966;8.052;2023-06-24T12:02:56;30.10;71.90
11848;DHT22;5983;49.966;8.052;2023-06-24T12:05:26;30.20;70.80
11848;DHT22;5983;49.966;8.052;2023-06-24T12:07:55;30.30;70.00
11848;DHT22;5983;49.966;8.052;2023-06-24T12:10:23;30.30;70.00
11848;DHT22;5983;49.966;8.052;2023-06-24T12:12:50;30.30;70.00
11848;DHT22;5983;49.966;8.052;2023-06-24T12:15:18;30.30;70.00
11848;DHT22;5983;49.966;8.052;2023-06-24T12:17:45;30.40;69.40
11848;DHT22;5983;49.966;8.052;2023-06-24T12:20:13;30.40;69.60
11848;DHT22;5983;49.966;8.052;2023-06-24T12:22:41;30.40;70.10
11848;DHT22;5983;49.966;8.052;2023-06-24T12:25:09;30.50;68.80
11848;DHT22;5983;49.966;8.052;2023-06-24T12:27:37;30.60;68.30
11848;DHT22;5983;49.966;8.052;2023-06-24T12:30:06;30.50;69.10
11848;DHT22;5983;49.966;8.052;2023-06-24T12:32:35;30.60;70.20
11848;DHT22;5983;49.966;8.052;2023-06-24T12:35:03;30.60;67.70
11848;DHT22;5983;49.966;8.052;2023-06-24T12:37:30;30.60;66.70
11848;DHT22;5983;49.966;8.052;2023-06-24T12:39:58;30.60;66.40
11848;DHT22;5983;49.966;8.052;2023-06-24T12:42:25;30.70;67.80
11848;DHT22;5983;49.966;8.052;2023-06-24T12:44:52;30.90;67.10
11848;DHT22;5983;49.966;8.052;2023-06-24T12:47:20;31.00;65.80
11848;DHT22;5983;49.966;8.052;2023-06-24T12:49:49;31.10;66.40
11848;DHT22;5983;49.966;8.052;2023-06-24T12:52:16;31.10;66.40
11848;DHT22;5983;49.966;8.052;2023-06-24T12:54:43;31.30;68.30
11848;DHT22;5983;49.966;8.052;2023-06-24T12:57:10;31.30;68.40
11848;DHT22;5983;49.966;8.052;2023-06-24T12:59:37;31.20;68.00
11848;DHT22;5983;49.966;8.052;2023-06-24T13:02:04;30.90;68.40
11848;DHT22;5983;49.966;8.052;2023-06-24T13:04:32;30.70;68.60
11848;DHT22;5983;49.966;8.052;2023-06-24T13:07:00;30.50;68.30
11848;DHT22;5983;49.966;8.052;2023-06-24T13:09:27;30.20;67.80
11848;DHT22;5983;49.966;8.052;2023-06-24T13:11:54;30.20;68.00
11848;DHT22;5983;49.966;8.052;2023-06-24T13:14:21;30.20;69.00
11848;DHT22;5983;49.966;8.052;2023-06-24T13:16:50;30.20;69.30
11848;DHT22;5983;49.966;8.052;2023-06-24T13:19:18;30.30;67.80
11848;DHT22;5983;49.966;8.052;2023-06-24T13:21:45;30.50;66.40
11848;DHT22;5983;49.966;8.052;2023-06-24T13:24:13;30.70;65.00
11848;DHT22;5983;49.966;8.052;2023-06-24T13:26:40;30.90;65.40
11848;DHT22;5983;49.966;8.052;2023-06-24T13:29:07;31.00;63.90
11848;DHT22;5983;49.966;8.052;2023-06-24T13:31:34;31.10;63.60
11848;DHT22;5983;49.966;8.052;2023-06-24T13:34:01;31.30;63.60
11848;DHT22;5983;49.966;8.052;2023-06-24T13:36:31;31.30;64.50
11848;DHT22;5983;49.966;8.052;2023-06-24T13:39:01;31.30;66.10
11848;DHT22;5983;49.966;8.052;2023-06-24T13:41:30;31.20;65.30
11848;DHT22;5983;49.966;8.052;2023-06-24T13:43:59;31.20;64.60
11848;DHT22;5983;49.966;8.052;2023-06-24T13:46:27;30.90;63.30
11848;DHT22;5983;49.966;8.052;2023-06-24T13:48:55;30.70;63.20
11848;DHT22;5983;49.966;8.052;2023-06-24T13:51:22;30.60;63.10
11848;DHT22;5983;49.966;8.052;2023-06-24T13:53:51;30.60;63.30
11848;DHT22;5983;49.966;8.052;2023-06-24T13:56:20;30.60;63.20
11848;DHT22;5983;49.966;8.052;2023-06-24T13:58:51;30.60;63.10
11848;DHT22;5983;49.966;8.052;2023-06-24T14:01:19;30.70;63.40
11848;DHT22;5983;49.966;8.052;2023-06-24T14:03:46;30.70;64.60
11848;DHT22;5983;49.966;8.052;2023-06-24T14:06:15;30.60;64.20
11848;DHT22;5983;49.966;8.052;2023-06-24T14:08:42;30.50;64.00
11848;DHT22;5983;49.966;8.052;2023-06-24T14:11:10;30.30;64.00
11848;DHT22;5983;49.966;8.052;2023-06-24T14:13:37;30.20;64.90
11848;DHT22;5983;49.966;8.052;2023-06-24T14:16:05;30.00;65.30
11848;DHT22;5983;49.966;8.052;2023-06-24T14:18:33;29.80;65.40
11848;DHT22;5983;49.966;8.052;2023-06-24T14:21:01;29.70;66.90
11848;DHT22;5983;49.966;8.052;2023-06-24T14:23:29;29.70;68.60
11848;DHT22;5983;49.966;8.052;2023-06-24T14:25:56;29.60;69.10
11848;DHT22;5983;49.966;8.052;2023-06-24T14:28:24;29.60;69.50
11848;DHT22;5983;49.966;8.052;2023-06-24T14:30:52;29.70;67.90
11848;DHT22;5983;49.966;8.052;2023-06-24T14:33:20;29.60;66.70
11848;DHT22;5983;49.966;8.052;2023-06-24T14:35:47;29.70;66.20
11848;DHT22;5983;49.966;8.052;2023-06-24T14:38:14;29.70;66.10
11848;DHT22;5983;49.966;8.052;2023-06-24T14:40:41;29.70;65.60
11848;DHT22;5983;49.966;8.052;2023-06-24T14:43:08;29.70;65.20
11848;DHT22;5983;49.966;8.052;2023-06-24T14:45:35;29.80;65.40
11848;DHT22;5983;49.966;8.052;2023-06-24T14:48:02;29.80;65.00
11848;DHT22;5983;49.966;8.052;2023-06-24T14:50:31;29.80;65.40
11848;DHT22;5983;49.966;8.052;2023-06-24T14:52:58;29.80;66.10
11848;DHT22;5983;49.966;8.052;2023-06-24T14:55:25;29.80;66.30
11848;DHT22;5983;49.966;8.052;2023-06-24T14:57:51;29.80;66.80
11848;DHT22;5983;49.966;8.052;2023-06-24T15:00:18;29.70;67.40
11848;DHT22;5983;49.966;8.052;2023-06-24T15:02:46;29.60;65.80
11848;DHT22;5983;49.966;8.052;2023-06-24T15:05:13;29.50;64.90
11848;DHT22;5983;49.966;8.052;2023-06-24T15:07:41;29.60;64.40
11848;DHT22;5983;49.966;8.052;2023-06-24T15:10:08;29.70;64.40
11848;DHT22;5983;49.966;8.052;2023-06-24T15:12:35;29.70;64.00
11848;DHT22;5983;49.966;8.052;2023-06-24T15:15:05;29.60;63.90
11848;DHT22;5983;49.966;8.052;2023-06-24T15:17:32;29.60;64.40
11848;DHT22;5983;49.966;8.052;2023-06-24T15:20:01;29.60;65.50
11848;DHT22;5983;49.966;8.052;2023-06-24T15:22:28;29.70;67.00
11848;DHT22;5983;49.966;8.052;2023-06-24T15:24:56;29.70;66.30
11848;DHT22;5983;49.966;8.052;2023-06-24T15:27:23;29.70;67.30
11848;DHT22;5983;49.966;8.052;2023-06-24T15:29:50;29.70;68.40
11848;DHT22;5983;49.966;8.052;2023-06-24T15:32:17;29.70;67.80
11848;DHT22;5983;49.966;8.052;2023-06-24T15:34:44;29.60;65.80
11848;DHT22;5983;49.966;8.052;2023-06-24T15:37:11;29.60;65.80
11848;DHT22;5983;49.966;8.052;2023-06-24T15:39:39;29.70;66.10
11848;DHT22;5983;49.966;8.052;2023-06-24T15:42:08;29.70;66.00
11848;DHT22;5983;49.966;8.052;2023-06-24T15:44:35;29.70;65.30
11848;DHT22;5983;49.966;8.052;2023-06-24T15:47:04;29.70;65.70
11848;DHT22;5983;49.966;8.052;2023-06-24T15:49:33;29.60;66.20
11848;DHT22;5983;49.966;8.052;2023-06-24T15:52:00;29.60;66.10
11848;DHT22;5983;49.966;8.052;2023-06-24T15:54:27;29.50;66.00
11848;DHT22;5983;49.966;8.052;2023-06-24T15:56:54;29.40;65.80
11848;DHT22;5983;49.966;8.052;2023-06-24T15:59:23;29.20;65.90